Nearby METAR Reports

 

KSJC - San Jose, California, USA
Distance from station: NE 14km
Updated: 2021-10-27 22:53
Clear
Clear
 Wind from NNW
Wind: NNW 15 km/h
Temperature: 18°C
Dew Point: 15°C
Humidity: 83%
Barometer: 1023.4 hPa
Clouds: Clear
Visibility: 16 km
2021/10/28 03:53 KSJC 280353Z 33008KT 10SM CLR 18/15 A3022 RMK AO2 SLP231 T01830150
KNUQ - Moffett Nas/Mtn, California, USA
Distance from station: N 14km
Updated: 2021-10-27 22:55
Haze, Clear
Haze, Clear
 Wind from WNW
Wind: WNW 6 km/h
Temperature: 19°C
Dew Point: 15°C
Humidity: 78%
Barometer: 1023.4 hPa
Summary: Haze
Clouds: Clear
Visibility: 6 km
2021/10/28 03:55 KNUQ 280355Z AUTO 30003KT 4SM HZ CLR 19/15 A3022 RMK AO2
 
KPAO - Palo Alto, California, USA
Distance from station: NNW 23km
Updated: 2021-10-27 22:47
Clear
Clear
 Wind from NW
Wind: NW 7 km/h
Temperature: 17°C
Dew Point: 14°C
Humidity: 83%
Barometer: 1023.4 hPa
Clouds: Clear
Visibility: 16 km
2021/10/28 03:47 KPAO 280347Z 32004KT 10SM SKC 17/14 A3022 RMK LAST
KRHV - San Jose/Reid, California, USA
Distance from station: ENE 19km
Updated: 2021-10-27 22:47

 Wind from varies
Wind: varies 7 km/h
Visibility: 16 km
2021/10/28 03:47 KRHV 280347Z VRB04KT 10SM ` 17/15 A3023
 
KOAK - Oakland, California, USA
Distance from station: NNW 50km
Updated: 2021-10-27 22:53
Clear
Clear
 Wind from WNW
Wind: WNW 6 km/h
Temperature: 17°C
Dew Point: 14°C
Humidity: 83%
Barometer: 1023.4 hPa
Clouds: Clear
Visibility: 16 km
2021/10/28 03:53 KOAK 280353Z 29003KT 10SM CLR 17/14 A3022 RMK AO2 SLP235 T01670144
KSQL - San Carlos Airpo, California, USA
Distance from station: NW 34km
Updated: 2021-10-27 22:47
Clear
Clear
 Wind from calm
Wind: Calm
Temperature: 19°C
Dew Point: 15°C
Humidity: 78%
Barometer: 1023.7 hPa
Clouds: Clear
Visibility: 16 km
2021/10/28 03:47 KSQL 280347Z 00000KT 10SM CLR 19/15 A3023
 
KSFO - San Francisco, California, USA
Distance from station: NW 49km
Updated: 2021-10-27 22:56
Few Clouds
Few Clouds
 Wind from WNW
Wind: WNW 19 km/h
Temperature: 16°C
Dew Point: 14°C
Humidity: 88%
Barometer: 1023.4 hPa
Clouds: Few Clouds
Visibility: 16 km
Cloud details: Few Clouds 122 m
2021/10/28 03:56 KSFO 280356Z 29010KT 10SM FEW004 16/14 A3022 RMK AO2 SLP232 T01610139
KE16 - San Martin, California, USA
Distance from station: ESE 43km
Updated: 2021-10-27 22:55
Clear
Clear
 Wind from calm
Wind: Calm
Temperature: 17°C
Dew Point: 14°C
Humidity: 83%
Barometer: 1024 hPa
Clouds: Clear
Visibility: 16 km
2021/10/28 03:55 KE16 280355Z AUTO 00000KT 10SM CLR 17/14 A3024 RMK AO2 PWINO PNO
 
KWVI - Watsonville, California, USA
Distance from station: SSE 44km
Updated: 2021-10-27 22:53
Clear
Clear
 Wind from calm
Wind: Calm
Temperature: 16°C
Dew Point: 14°C
Humidity: 88%
Barometer: 1023 hPa
Clouds: Clear
Visibility: 16 km
2021/10/28 03:53 KWVI 280353Z AUTO 00000KT 10SM CLR 16/14 A3021 RMK AO2 SLP229 T01560139
KHAF - Half Moon Bay, California, USA
Distance from station: WNW 50km
Updated: 2021-10-27 22:55
Mist
Mist
 Wind from NNW
Wind: NNW 15 km/h
Temperature: 14°C
Dew Point: 14°C
Humidity: 100%
Barometer: 1023.7 hPa
Summary: Mist
Visibility: 6 km
2021/10/28 03:55 KHAF 280355Z AUTO 34008KT 4SM BR 14/14 A3023 RMK AO2
 
KHWD - Hayward, California, USA
Distance from station: N 44km
Updated: 2021-10-27 22:54
Clear
Clear
 Wind from calm
Wind: Calm
Temperature: 18°C
Dew Point: 14°C
Humidity: 78%
Barometer: 1023.4 hPa
Clouds: Clear
Visibility: 16 km
2021/10/28 03:54 KHWD 280354Z 00000KT 10SM CLR 18/14 A3022 RMK AO2 SLP242 T01780144
KLVK - Livermore, California, USA
Distance from station: NNE 51km
Updated: 2021-10-27 22:53
Clear
Clear
 Wind from ESE
Wind: ESE 9 km/h
Temperature: 17°C
Dew Point: 14°C
Humidity: 83%
Barometer: 1023.7 hPa
Clouds: Clear
Visibility: 16 km
2021/10/28 03:53 KLVK 280353Z 11005KT 10SM CLR 17/14 A3023 RMK AO2 SLP233 T01720144